Time;durP1;ratioP1;P1;durP2;ratioP2;P2;SDS_P1;SDS_P2;PMS_P1;PMS_P2;Temp;Humidity;BMP_temperature;BMP_pressure;BME280_temperature;BME280_humidity;BME280_pressure;Samples;Min_cycle;Max_cycle;Signal;HPM_P1;HPM_P2
2021/12/27 00:00:07;;;;;;;19.38;12.65;;;1.10;94.90;;;;;;5038136;28;20040;-76
2021/12/27 00:02:33;;;;;;;21.85;13.57;;;1.10;95.30;;;;;;5037933;28;20039;-76
2021/12/27 00:04:59;;;;;;;19.63;13.23;;;1.10;95.10;;;;;;5054575;28;20040;-76
2021/12/27 00:07:24;;;;;;;19.75;12.65;;;1.10;95.00;;;;;;5038006;28;20072;-76
2021/12/27 00:09:50;;;;;;;18.58;12.95;;;1.10;95.20;;;;;;5054893;28;20033;-76
2021/12/27 00:12:15;;;;;;;18.35;11.95;;;1.10;95.30;;;;;;5037884;28;20040;-76
2021/12/27 00:14:41;;;;;;;18.73;13.38;;;1.10;95.20;;;;;;5054798;28;20051;-76
2021/12/27 00:17:07;;;;;;;21.60;13.85;;;1.10;95.40;;;;;;5037995;28;20040;-76
2021/12/27 00:19:32;;;;;;;18.98;12.85;;;1.10;95.50;;;;;;5054465;28;20041;-76
2021/12/27 00:21:58;;;;;;;18.98;13.00;;;1.10;95.40;;;;;;5054277;28;20397;-76
2021/12/27 00:24:23;;;;;;;18.77;12.80;;;1.10;95.50;;;;;;5054568;28;20098;-76
2021/12/27 00:26:49;;;;;;;18.20;13.07;;;1.10;95.60;;;;;;5037911;28;20044;-76
2021/12/27 00:29:15;;;;;;;17.90;12.85;;;1.10;95.60;;;;;;5055559;28;20036;-76
2021/12/27 00:31:42;;;;;;;18.77;12.50;;;1.20;95.60;;;;;;5057935;28;20045;-76
2021/12/27 00:34:07;;;;;;;18.52;12.98;;;1.20;95.60;;;;;;5057909;28;20083;-76
2021/12/27 00:36:33;;;;;;;17.95;12.70;;;1.20;95.60;;;;;;5058132;28;20080;-76
2021/12/27 00:38:59;;;;;;;18.88;13.07;;;1.20;95.50;;;;;;5057871;28;20547;-76
2021/12/27 00:41:24;;;;;;;20.85;14.20;;;1.20;95.70;;;;;;5041254;28;20123;-76
2021/12/27 00:43:50;;;;;;;20.27;13.82;;;1.20;95.60;;;;;;5041082;28;20052;-76
2021/12/27 00:46:15;;;;;;;19.38;12.90;;;1.20;95.50;;;;;;5057749;28;20036;-76
2021/12/27 00:48:41;;;;;;;19.27;13.25;;;1.20;95.60;;;;;;5058044;28;20033;-76
2021/12/27 00:51:08;;;;;;;20.85;13.93;;;1.20;95.60;;;;;;5057936;28;20033;-76
2021/12/27 00:53:34;;;;;;;17.67;12.73;;;1.20;95.80;;;;;;5041129;28;20497;-76
2021/12/27 00:56:00;;;;;;;19.30;13.57;;;1.20;95.90;;;;;;5057483;28;20084;-76
2021/12/27 00:58:26;;;;;;;21.27;13.48;;;1.20;95.80;;;;;;5057498;28;20036;-76
2021/12/27 01:00:51;;;;;;;19.38;13.52;;;1.20;95.90;;;;;;5057438;28;20127;-76
2021/12/27 01:03:18;;;;;;;20.02;13.38;;;1.20;95.90;;;;;;5057177;28;20040;-76
2021/12/27 01:05:43;;;;;;;18.08;12.80;;;1.20;96.00;;;;;;5041046;28;20029;-76
2021/12/27 01:08:09;;;;;;;18.98;12.70;;;1.20;96.00;;;;;;5057482;28;20382;-76
2021/12/27 01:13:17;;;;;;;19.15;13.02;;;1.20;96.10;;;;;;5057413;28;20154;-76
2021/12/27 01:15:49;;;;;;;18.95;13.20;;;1.20;96.10;;;;;;5057191;28;20041;-76
2021/12/27 01:18:17;;;;;;;20.30;13.60;;;1.20;96.10;;;;;;5057071;28;20041;-76
2021/12/27 01:20:43;;;;;;;20.50;13.98;;;1.20;96.30;;;;;;5057052;28;20535;-76
2021/12/27 01:23:10;;;;;;;22.50;14.52;;;1.10;96.10;;;;;;5056747;28;20054;-76
2021/12/27 01:25:36;;;;;;;20.85;13.27;;;1.10;96.40;;;;;;5056917;28;20033;-76
2021/12/27 01:28:02;;;;;;;21.75;14.13;;;1.20;96.30;;;;;;5056935;28;20138;-76
2021/12/27 01:30:28;;;;;;;19.95;13.23;;;1.20;96.30;;;;;;5057135;28;20041;-76
2021/12/27 01:33:00;;;;;;;19.88;13.48;;;1.20;96.20;;;;;;5056674;28;20071;-76
2021/12/27 01:35:26;;;;;;;21.08;13.85;;;1.20;96.30;;;;;;5056833;28;20068;-76
2021/12/27 01:37:53;;;;;;;20.67;13.75;;;1.20;96.60;;;;;;5040410;28;20055;-76
2021/12/27 01:40:24;;;;;;;20.27;14.40;;;1.20;96.40;;;;;;5056309;28;20041;-76
2021/12/27 01:43:01;;;;;;;21.83;15.00;;;1.20;96.30;;;;;;5056510;28;20040;-76
2021/12/27 01:45:26;;;;;;;20.55;14.05;;;1.20;96.30;;;;;;5056652;28;20028;-76
2021/12/27 01:47:52;;;;;;;21.63;13.95;;;1.20;96.40;;;;;;5056578;28;20381;-76
2021/12/27 01:50:17;;;;;;;20.67;14.45;;;1.20;96.40;;;;;;5039858;28;20029;-76
2021/12/27 01:52:43;;;;;;;19.50;13.93;;;1.30;96.40;;;;;;5039799;28;20041;-76
2021/12/27 01:55:09;;;;;;;20.75;14.20;;;1.20;96.50;;;;;;5056643;28;20148;-76
2021/12/27 01:57:35;;;;;;;20.50;13.98;;;1.20;96.50;;;;;;5039682;28;20037;-76
2021/12/27 02:00:00;;;;;;;20.73;14.13;;;1.20;96.60;;;;;;5057109;28;20040;-76
2021/12/27 02:02:26;;;;;;;21.23;13.95;;;1.20;96.50;;;;;;5056176;28;20454;-76
2021/12/27 02:04:52;;;;;;;22.80;14.85;;;1.30;96.70;;;;;;5056139;28;20040;-76
2021/12/27 02:07:17;;;;;;;21.65;14.30;;;1.30;96.60;;;;;;5056189;28;20059;-76
2021/12/27 02:09:55;;;;;;;19.50;13.60;;;1.30;96.50;;;;;;5056382;28;20119;-76
2021/12/27 02:12:21;;;;;;;21.65;13.90;;;1.20;96.60;;;;;;5056172;28;20055;-76
2021/12/27 02:14:46;;;;;;;24.42;15.43;;;1.30;96.60;;;;;;5056274;28;20443;-76
2021/12/27 02:17:17;;;;;;;21.05;14.55;;;1.30;96.70;;;;;;5056011;28;20473;-76
2021/12/27 02:19:47;;;;;;;21.35;14.30;;;1.30;96.70;;;;;;5056221;28;20071;-76
2021/12/27 02:22:13;;;;;;;21.77;14.02;;;1.30;96.90;;;;;;5055652;28;20053;-76
2021/12/27 02:24:40;;;;;;;20.48;14.05;;;1.30;96.90;;;;;;5039453;28;20058;-76
2021/12/27 02:27:06;;;;;;;21.98;14.70;;;1.30;96.80;;;;;;5056077;28;20047;-76
2021/12/27 02:29:32;;;;;;;21.17;14.55;;;1.20;96.90;;;;;;5055692;28;20043;-76
2021/12/27 02:31:58;;;;;;;19.15;13.65;;;1.30;96.90;;;;;;5055721;28;20028;-76
2021/12/27 02:34:23;;;;;;;21.55;14.60;;;1.30;96.90;;;;;;5055908;28;20124;-76
2021/12/27 02:36:49;;;;;;;21.00;14.48;;;1.30;96.90;;;;;;5055669;28;20045;-76
2021/12/27 02:39:16;;;;;;;21.95;15.13;;;1.30;97.00;;;;;;5055536;28;20054;-76
2021/12/27 02:41:41;;;;;;;23.75;15.07;;;1.30;96.90;;;;;;5055734;28;20154;-76
2021/12/27 02:44:07;;;;;;;24.17;15.02;;;1.30;97.00;;;;;;5055423;28;20131;-76
2021/12/27 02:46:34;;;;;;;21.80;14.57;;;1.30;97.00;;;;;;5055375;28;20036;-76
2021/12/27 02:49:00;;;;;;;21.17;14.55;;;1.40;97.00;;;;;;5055483;28;20036;-76
2021/12/27 02:51:25;;;;;;;22.65;14.98;;;1.30;97.00;;;;;;5054766;28;20040;-76
2021/12/27 02:53:51;;;;;;;23.23;15.00;;;1.30;97.10;;;;;;5055229;28;20048;-76
2021/12/27 02:56:18;;;;;;;23.65;14.30;;;1.30;97.10;;;;;;5055337;28;20033;-76
2021/12/27 02:58:44;;;;;;;23.40;15.52;;;1.30;97.10;;;;;;5055489;28;20044;-76
2021/12/27 03:01:13;;;;;;;21.08;14.70;;;1.30;97.20;;;;;;5038876;28;20040;-76
2021/12/27 03:03:39;;;;;;;23.10;14.93;;;1.30;97.30;;;;;;5055348;28;20102;-76
2021/12/27 03:06:06;;;;;;;21.90;15.70;;;1.40;97.40;;;;;;5055427;28;20036;-76
2021/12/27 03:08:32;;;;;;;24.25;14.70;;;1.40;97.70;;;;;;5055152;28;20032;-76
2021/12/27 03:11:00;;;;;;;23.20;15.18;;;1.30;97.50;;;;;;5038577;28;20485;-76
2021/12/27 03:13:30;;;;;;;21.10;14.65;;;1.40;97.50;;;;;;5055588;28;20125;-76
2021/12/27 03:15:59;;;;;;;24.13;15.57;;;1.40;97.60;;;;;;5038587;28;20036;-76
2021/12/27 03:18:25;;;;;;;20.88;14.93;;;1.40;97.60;;;;;;5055082;28;20044;-76
2021/12/27 03:20:52;;;;;;;21.30;15.32;;;1.40;97.60;;;;;;5055283;28;20127;-76
2021/12/27 03:23:18;;;;;;;24.27;15.95;;;1.40;97.70;;;;;;5054803;28;20547;-76
2021/12/27 03:25:44;;;;;;;21.83;15.68;;;1.40;97.70;;;;;;5055260;28;20036;-76
2021/12/27 03:28:10;;;;;;;23.75;16.08;;;1.40;97.70;;;;;;5055010;28;20444;-76
2021/12/27 03:30:36;;;;;;;22.00;14.77;;;1.40;97.60;;;;;;5054898;28;20078;-76
2021/12/27 03:33:03;;;;;;;21.92;14.82;;;1.40;97.60;;;;;;5054868;28;20065;-76
2021/12/27 03:35:35;;;;;;;21.85;15.70;;;1.40;97.70;;;;;;5054874;28;20521;-76
2021/12/27 03:38:04;;;;;;;21.50;14.70;;;1.40;97.80;;;;;;5038673;28;20106;-76
2021/12/27 03:40:30;;;;;;;22.88;15.38;;;1.40;97.90;;;;;;5054859;28;20040;-76
2021/12/27 03:42:56;;;;;;;23.08;15.50;;;1.40;97.80;;;;;;5038135;28;20033;-76
2021/12/27 03:45:25;;;;;;;23.35;15.50;;;1.40;97.90;;;;;;5054861;28;20040;-76
2021/12/27 03:47:51;;;;;;;21.08;15.07;;;1.40;98.00;;;;;;5055009;28;20058;-76
2021/12/27 03:50:17;;;;;;;21.95;15.27;;;1.40;98.20;;;;;;5038134;28;20120;-76
2021/12/27 03:52:43;;;;;;;21.48;15.15;;;1.40;98.20;;;;;;5055333;28;20068;-76
2021/12/27 03:55:10;;;;;;;21.40;14.73;;;1.40;98.20;;;;;;5054790;28;20451;-76
2021/12/27 03:57:38;;;;;;;22.02;14.60;;;1.40;98.10;;;;;;5054960;28;20078;-76
2021/12/27 04:00:26;;;;;;;21.92;15.10;;;1.50;98.20;;;;;;5054703;28;20040;-76
2021/12/27 04:02:55;;;;;;;20.95;15.38;;;1.50;98.20;;;;;;5055378;28;20044;-76
2021/12/27 04:05:21;;;;;;;22.67;15.35;;;1.50;98.20;;;;;;5041855;28;20033;-76
2021/12/27 04:07:56;;;;;;;22.88;14.93;;;1.50;98.20;;;;;;5058722;28;20040;-76
2021/12/27 04:10:21;;;;;;;21.63;15.27;;;1.40;98.30;;;;;;5041810;28;20078;-76
2021/12/27 04:12:47;;;;;;;21.27;14.40;;;1.40;98.30;;;;;;5041943;28;20129;-76
2021/12/27 04:15:13;;;;;;;23.50;15.52;;;1.40;98.30;;;;;;5058596;28;20029;-76
2021/12/27 04:17:38;;;;;;;22.73;15.10;;;1.40;98.50;;;;;;5058246;28;20546;-76
2021/12/27 04:20:04;;;;;;;20.88;15.30;;;1.40;98.40;;;;;;5058218;28;20132;-76
2021/12/27 04:22:33;;;;;;;23.30;14.60;;;1.50;98.60;;;;;;5058145;28;20036;-76
2021/12/27 04:25:03;;;;;;;21.67;15.25;;;1.40;98.50;;;;;;5058042;28;20048;-76
2021/12/27 04:27:28;;;;;;;22.13;15.38;;;1.40;98.60;;;;;;5058277;28;20443;-76
2021/12/27 04:29:54;;;;;;;22.80;15.07;;;1.40;98.60;;;;;;5058058;28;20037;-76
2021/12/27 04:32:20;;;;;;;21.42;14.50;;;1.40;98.70;;;;;;5058101;28;20041;-76
2021/12/27 04:34:46;;;;;;;22.77;15.90;;;1.50;98.90;;;;;;5041242;28;20412;-76
2021/12/27 04:37:12;;;;;;;23.30;15.40;;;1.40;98.60;;;;;;5041265;28;20119;-76
2021/12/27 04:39:38;;;;;;;21.35;15.23;;;1.50;99.10;;;;;;5057775;28;20040;-76
2021/12/27 04:42:05;;;;;;;21.42;15.50;;;1.50;98.90;;;;;;5057793;28;20041;-76
2021/12/27 04:44:31;;;;;;;22.83;15.35;;;1.50;98.70;;;;;;5057656;28;20048;-76
2021/12/27 04:46:57;;;;;;;22.90;15.80;;;1.50;98.70;;;;;;5057745;28;20123;-76
2021/12/27 04:49:22;;;;;;;24.05;15.10;;;1.50;98.80;;;;;;5057647;28;20044;-76
2021/12/27 04:51:48;;;;;;;24.20;16.45;;;1.50;98.80;;;;;;5041024;28;20037;-76
2021/12/27 04:54:14;;;;;;;23.30;16.65;;;1.50;98.90;;;;;;5041048;28;20048;-76
2021/12/27 04:56:39;;;;;;;23.27;16.13;;;1.50;98.90;;;;;;5040954;28;20085;-76
2021/12/27 04:59:05;;;;;;;23.67;16.27;;;1.50;98.80;;;;;;5057590;28;20037;-76
2021/12/27 05:01:31;;;;;;;24.17;15.57;;;1.50;99.00;;;;;;5057476;28;20102;-76
2021/12/27 05:03:56;;;;;;;23.17;16.15;;;1.50;99.00;;;;;;5057249;28;20060;-76
2021/12/27 05:06:22;;;;;;;24.80;16.60;;;1.50;99.00;;;;;;5057396;28;20037;-76
2021/12/27 05:08:49;;;;;;;22.60;15.95;;;1.50;99.00;;;;;;5057597;28;20122;-76
2021/12/27 05:11:15;;;;;;;25.98;17.08;;;1.50;99.10;;;;;;5057575;28;20062;-76
2021/12/27 05:13:41;;;;;;;25.02;16.38;;;1.50;99.40;;;;;;5057086;28;20432;-76
2021/12/27 05:16:07;;;;;;;24.92;16.65;;;1.50;99.50;;;;;;5056498;28;20049;-76
2021/12/27 05:18:32;;;;;;;27.08;16.95;;;1.50;99.90;;;;;;5057396;28;20143;-76
2021/12/27 05:20:58;;;;;;;24.05;16.38;;;1.40;99.90;;;;;;5057037;28;20044;-76
2021/12/27 05:23:24;;;;;;;29.90;18.48;;;1.40;99.90;;;;;;5056739;28;20048;-76
2021/12/27 05:25:49;;;;;;;28.67;17.88;;;1.40;99.90;;;;;;5056979;28;20078;-76
2021/12/27 05:28:15;;;;;;;26.58;17.88;;;1.40;99.90;;;;;;5040405;28;20037;-76
2021/12/27 05:30:43;;;;;;;29.73;18.17;;;1.40;99.90;;;;;;5057096;28;20071;-76
2021/12/27 05:33:09;;;;;;;25.42;16.95;;;1.40;99.90;;;;;;5056816;28;20120;-76
2021/12/27 05:35:34;;;;;;;29.70;18.45;;;1.40;99.90;;;;;;5057179;28;20040;-76
2021/12/27 05:38:00;;;;;;;29.15;18.05;;;1.40;99.90;;;;;;5056794;28;20511;-76
2021/12/27 05:40:26;;;;;;;27.85;17.13;;;1.40;99.90;;;;;;5056716;28;20124;-76
2021/12/27 05:42:53;;;;;;;26.40;17.10;;;1.40;99.90;;;;;;5056897;28;20044;-76
2021/12/27 05:45:19;;;;;;;30.25;18.75;;;1.40;99.90;;;;;;5056571;28;20165;-76
2021/12/27 05:47:46;;;;;;;28.67;18.73;;;1.40;99.90;;;;;;5056640;28;20132;-76
2021/12/27 05:50:13;;;;;;;27.95;16.77;;;1.40;99.90;;;;;;5056512;28;20091;-76
2021/12/27 05:52:39;;;;;;;24.50;16.13;;;1.40;99.90;;;;;;5056325;28;20500;-76
2021/12/27 05:55:07;;;;;;;28.00;17.77;;;1.50;99.90;;;;;;5056623;28;20045;-76
2021/12/27 05:57:33;;;;;;;27.23;17.88;;;1.40;99.90;;;;;;5056564;28;20051;-76
2021/12/27 05:59:59;;;;;;;28.42;18.23;;;1.40;99.90;;;;;;5056311;28;20036;-76
2021/12/27 06:02:24;;;;;;;26.77;17.45;;;1.50;99.90;;;;;;5056053;28;20381;-76
2021/12/27 06:04:50;;;;;;;29.35;17.88;;;1.50;99.90;;;;;;5039548;28;20048;-76
2021/12/27 06:07:16;;;;;;;26.10;17.23;;;1.50;99.90;;;;;;5056209;28;20149;-76
2021/12/27 06:09:42;;;;;;;28.25;17.75;;;1.50;99.90;;;;;;5056352;28;20102;-76
2021/12/27 06:12:08;;;;;;;27.73;19.02;;;1.50;99.90;;;;;;5056007;28;20481;-76
2021/12/27 06:14:33;;;;;;;27.25;17.45;;;1.50;99.90;;;;;;5056261;28;20093;-76
2021/12/27 06:16:59;;;;;;;28.85;18.27;;;1.50;99.90;;;;;;5039721;28;20515;-76
2021/12/27 06:19:25;;;;;;;30.80;18.75;;;1.50;99.90;;;;;;5055886;28;20492;-76
2021/12/27 06:21:51;;;;;;;31.75;18.73;;;1.40;99.90;;;;;;5055644;28;20251;-76
2021/12/27 06:24:16;;;;;;;31.00;19.45;;;1.40;99.90;;;;;;5055776;28;20120;-76
2021/12/27 06:26:42;;;;;;;33.85;19.15;;;1.40;99.90;;;;;;5055107;28;20040;-76
2021/12/27 06:29:07;;;;;;;32.95;19.05;;;1.40;99.90;;;;;;5055814;28;20382;-76
2021/12/27 06:31:33;;;;;;;32.08;19.30;;;1.40;99.90;;;;;;5055762;28;20034;-76
2021/12/27 06:33:59;;;;;;;32.05;18.95;;;1.50;99.90;;;;;;5055630;28;20128;-76
2021/12/27 06:36:25;;;;;;;31.52;18.77;;;1.50;99.90;;;;;;5039076;28;20062;-76
2021/12/27 06:38:50;;;;;;;35.25;19.67;;;1.50;99.90;;;;;;5055663;28;20036;-75
2021/12/27 06:41:16;;;;;;;34.55;19.95;;;1.50;99.90;;;;;;5038939;28;20040;-76
2021/12/27 06:43:42;;;;;;;35.65;19.88;;;1.50;99.90;;;;;;5038775;28;20051;-75
2021/12/27 06:46:07;;;;;;;33.15;20.13;;;1.50;99.90;;;;;;5056602;28;20028;-76
2021/12/27 06:48:33;;;;;;;31.65;18.92;;;1.50;99.90;;;;;;5055461;28;20489;-76
2021/12/27 06:50:59;;;;;;;31.75;19.30;;;1.50;99.90;;;;;;5055673;28;20040;-76
2021/12/27 06:53:28;;;;;;;34.42;19.67;;;1.50;99.90;;;;;;5038751;28;20040;-76
2021/12/27 06:55:54;;;;;;;34.58;19.42;;;1.50;99.90;;;;;;5055370;28;20044;-76
2021/12/27 06:58:20;;;;;;;31.80;19.27;;;1.50;99.90;;;;;;5055283;28;20048;-75
2021/12/27 07:00:45;;;;;;;34.65;20.65;;;1.50;99.90;;;;;;5055258;28;20068;-75
2021/12/27 07:03:11;;;;;;;33.65;20.20;;;1.60;99.90;;;;;;5055153;28;20059;-76
2021/12/27 07:05:37;;;;;;;35.58;21.05;;;1.50;99.90;;;;;;5055492;28;20059;-76
2021/12/27 07:08:03;;;;;;;38.90;21.48;;;1.50;99.90;;;;;;5055445;28;20032;-76
2021/12/27 07:10:31;;;;;;;36.35;21.20;;;1.60;99.90;;;;;;5038786;28;20055;-76
2021/12/27 07:12:56;;;;;;;35.60;20.50;;;1.60;99.90;;;;;;5038528;28;20044;-75
2021/12/27 07:15:22;;;;;;;34.75;20.75;;;1.60;99.90;;;;;;5038836;28;20041;-75
2021/12/27 07:17:47;;;;;;;36.08;20.67;;;1.60;99.90;;;;;;5055114;28;20512;-76
2021/12/27 07:20:13;;;;;;;40.83;22.38;;;1.60;99.90;;;;;;5038560;28;20044;-76
2021/12/27 07:22:39;;;;;;;38.90;21.25;;;1.60;99.90;;;;;;5054896;28;20040;-76
2021/12/27 07:25:05;;;;;;;39.13;21.45;;;1.60;99.90;;;;;;5054970;28;20036;-76
2021/12/27 07:27:31;;;;;;;36.42;20.80;;;1.60;99.90;;;;;;5055011;28;20036;-75
2021/12/27 07:29:57;;;;;;;41.50;21.05;;;1.60;99.90;;;;;;5038524;28;20060;-76
2021/12/27 07:32:23;;;;;;;40.13;20.75;;;1.60;99.90;;;;;;5054846;28;20404;-75
2021/12/27 07:34:49;;;;;;;38.25;20.60;;;1.60;99.90;;;;;;5055243;28;20044;-76
2021/12/27 07:37:17;;;;;;;45.60;21.92;;;1.60;99.90;;;;;;5054914;28;20491;-76
2021/12/27 07:39:44;;;;;;;43.95;22.75;;;1.60;99.90;;;;;;5042287;28;20477;-76
2021/12/27 07:42:09;;;;;;;41.85;21.60;;;1.70;99.90;;;;;;5058887;28;20074;-75
2021/12/27 07:44:35;;;;;;;45.92;22.67;;;1.60;99.90;;;;;;5058955;28;20161;-75
2021/12/27 07:47:01;;;;;;;42.58;21.67;;;1.70;99.90;;;;;;5058880;28;20546;-75
2021/12/27 07:49:26;;;;;;;43.63;21.63;;;1.60;99.90;;;;;;5042433;28;20485;-75
2021/12/27 07:51:52;;;;;;;46.40;22.08;;;1.60;99.90;;;;;;5058714;28;20039;-75
2021/12/27 07:54:17;;;;;;;41.88;21.35;;;1.70;99.90;;;;;;5058984;28;20047;-75
2021/12/27 07:56:43;;;;;;;45.17;21.92;;;1.70;99.90;;;;;;5058652;28;20039;-75
2021/12/27 07:59:10;;;;;;;42.83;22.23;;;1.70;99.90;;;;;;5060571;28;20127;-74
2021/12/27 08:01:37;;;;;;;45.97;22.38;;;1.70;99.90;;;;;;5062354;28;20041;-74
2021/12/27 08:04:05;;;;;;;49.80;22.42;;;1.70;99.90;;;;;;5044730;28;20041;-74
2021/12/27 08:06:31;;;;;;;46.28;22.10;;;1.70;99.90;;;;;;5043538;28;20044;-74
2021/12/27 08:08:57;;;;;;;44.90;22.20;;;1.70;99.90;;;;;;5043773;28;20036;-74
2021/12/27 08:11:24;;;;;;;46.90;22.73;;;1.70;99.90;;;;;;5043119;28;20507;-74
2021/12/27 08:13:50;;;;;;;42.65;21.70;;;1.70;99.90;;;;;;5043480;28;20044;-74
2021/12/27 08:16:17;;;;;;;46.00;21.50;;;1.70;99.90;;;;;;5060207;28;20408;-74
2021/12/27 08:18:46;;;;;;;51.78;22.77;;;1.70;99.90;;;;;;5059393;28;20118;-75
2021/12/27 08:21:13;;;;;;;47.22;21.55;;;1.70;99.90;;;;;;5042729;28;20052;-75
2021/12/27 08:23:38;;;;;;;50.22;22.23;;;1.80;99.90;;;;;;5043764;28;20082;-75
2021/12/27 08:26:04;;;;;;;54.17;24.88;;;1.80;99.90;;;;;;5043802;28;20028;-74
2021/12/27 08:28:31;;;;;;;57.78;24.75;;;1.80;99.90;;;;;;5042708;28;20029;-74
2021/12/27 08:30:57;;;;;;;55.97;23.67;;;1.80;99.90;;;;;;5058845;28;20076;-73
2021/12/27 08:33:22;;;;;;;52.60;24.02;;;1.80;99.90;;;;;;5058342;28;20496;-73
2021/12/27 08:35:48;;;;;;;57.63;24.67;;;1.80;99.90;;;;;;5058598;28;20409;-74
2021/12/27 08:38:16;;;;;;;58.08;24.25;;;1.80;99.90;;;;;;5060107;28;20043;-74
2021/12/27 08:40:42;;;;;;;62.63;25.77;;;1.80;99.90;;;;;;5060144;28;20654;-74
2021/12/27 08:43:07;;;;;;;59.22;24.42;;;1.80;99.90;;;;;;5059894;28;20123;-74
2021/12/27 08:45:33;;;;;;;67.93;25.67;;;1.80;99.90;;;;;;5060824;28;20054;-74
2021/12/27 08:47:59;;;;;;;57.17;24.48;;;1.80;99.90;;;;;;5060673;28;20413;-74
2021/12/27 08:50:24;;;;;;;63.80;25.85;;;1.80;99.90;;;;;;5059853;28;20493;-74
2021/12/27 08:52:50;;;;;;;51.45;23.35;;;1.80;99.90;;;;;;5060644;28;20028;-75
2021/12/27 08:55:16;;;;;;;66.05;26.83;;;1.80;99.90;;;;;;5060163;28;20094;-74
2021/12/27 08:57:42;;;;;;;58.53;25.33;;;1.80;99.90;;;;;;5057794;28;20049;-74
2021/12/27 09:00:10;;;;;;;56.35;24.38;;;1.80;99.90;;;;;;5057471;28;20497;-75
2021/12/27 09:02:36;;;;;;;55.63;23.65;;;1.90;99.90;;;;;;5057398;28;20071;-74
2021/12/27 09:05:03;;;;;;;64.28;26.05;;;1.90;99.90;;;;;;5040826;28;20087;-75
2021/12/27 09:07:29;;;;;;;55.92;24.88;;;1.90;99.90;;;;;;5041008;28;20461;-75
2021/12/27 09:09:54;;;;;;;59.42;24.85;;;1.90;99.90;;;;;;5057187;28;20501;-75
2021/12/27 09:12:20;;;;;;;64.47;25.50;;;1.90;99.90;;;;;;5057236;28;20044;-75
2021/12/27 09:14:46;;;;;;;61.90;24.95;;;1.90;99.90;;;;;;5057506;28;20045;-74
2021/12/27 09:17:12;;;;;;;65.57;25.98;;;1.90;99.90;;;;;;5057419;28;20488;-75
2021/12/27 09:19:37;;;;;;;67.50;26.40;;;2.00;99.90;;;;;;5057115;28;20393;-76
2021/12/27 09:22:03;;;;;;;70.55;26.23;;;2.00;99.90;;;;;;5040245;28;20036;-75
2021/12/27 09:24:31;;;;;;;64.93;25.77;;;2.00;99.90;;;;;;5056887;28;20115;-75
2021/12/27 09:26:57;;;;;;;63.42;25.63;;;2.00;99.90;;;;;;5040383;28;20044;-75
2021/12/27 09:29:23;;;;;;;63.60;25.88;;;2.00;99.90;;;;;;5057236;28;20045;-75
2021/12/27 09:31:50;;;;;;;79.72;27.52;;;2.00;99.90;;;;;;5056770;28;20041;-75
2021/12/27 09:34:16;;;;;;;65.90;25.50;;;2.10;99.90;;;;;;5057070;28;20115;-75
2021/12/27 09:36:42;;;;;;;69.78;26.42;;;2.10;99.90;;;;;;5057002;28;20182;-75
2021/12/27 09:39:08;;;;;;;78.40;27.55;;;2.10;99.90;;;;;;5056750;28;20505;-75
2021/12/27 09:41:33;;;;;;;58.88;23.55;;;2.20;99.90;;;;;;5056695;28;20078;-75
2021/12/27 09:43:59;;;;;;;66.50;25.45;;;2.20;99.90;;;;;;5056571;28;20072;-75
2021/12/27 09:46:24;;;;;;;84.70;27.73;;;2.20;99.90;;;;;;5056644;28;20041;-76
2021/12/27 09:48:53;;;;;;;74.18;26.38;;;2.20;99.90;;;;;;5056832;28;20042;-75
2021/12/27 09:51:19;;;;;;;83.68;27.80;;;2.30;99.90;;;;;;5040178;28;20082;-75
2021/12/27 09:53:44;;;;;;;73.47;25.55;;;2.20;99.90;;;;;;5056585;28;20072;-75
2021/12/27 09:56:11;;;;;;;86.43;28.10;;;2.20;99.90;;;;;;5056352;28;20412;-75
2021/12/27 09:58:37;;;;;;;86.45;28.83;;;2.30;99.90;;;;;;5039748;28;20036;-75
2021/12/27 10:01:05;;;;;;;98.88;28.75;;;2.30;99.90;;;;;;5056095;28;20036;-75
2021/12/27 10:03:43;;;;;;;86.80;27.35;;;2.30;99.90;;;;;;5056140;28;20048;-75
2021/12/27 10:06:11;;;;;;;85.63;27.45;;;2.30;99.90;;;;;;5039915;28;20044;-76
2021/12/27 10:08:38;;;;;;;88.10;28.90;;;2.40;99.90;;;;;;5056623;28;20055;-76
2021/12/27 10:11:03;;;;;;;71.95;26.83;;;2.40;99.90;;;;;;5056155;28;20040;-75
2021/12/27 10:13:29;;;;;;;92.10;27.38;;;2.40;99.90;;;;;;5056176;28;20044;-76
2021/12/27 10:15:55;;;;;;;74.30;26.08;;;2.40;99.90;;;;;;5056283;28;20528;-76
2021/12/27 10:18:23;;;;;;;85.63;28.10;;;2.50;99.90;;;;;;5055957;28;20535;-74
2021/12/27 10:20:48;;;;;;;80.25;27.10;;;2.50;99.90;;;;;;5055904;28;20040;-76
2021/12/27 10:23:18;;;;;;;71.03;25.73;;;2.50;99.90;;;;;;5039078;28;20047;-75
2021/12/27 10:25:47;;;;;;;92.72;28.15;;;2.50;99.90;;;;;;5055809;28;20092;-76
2021/12/27 10:28:12;;;;;;;74.07;25.75;;;2.50;99.90;;;;;;5055706;28;20051;-76
2021/12/27 10:30:44;;;;;;;89.53;26.52;;;2.60;99.90;;;;;;5039260;28;20040;-75
2021/12/27 10:33:24;;;;;;;103.85;28.10;;;2.60;99.90;;;;;;5055690;28;20518;-76
2021/12/27 10:35:56;;;;;;;82.57;26.75;;;2.60;99.90;;;;;;5055715;28;20040;-76
2021/12/27 10:38:26;;;;;;;97.28;27.73;;;2.60;99.90;;;;;;5039078;28;20508;-76
2021/12/27 10:40:58;;;;;;;109.50;30.20;;;2.60;99.90;;;;;;5056080;28;20109;-75
2021/12/27 10:43:42;;;;;;;90.82;27.02;;;2.60;99.90;;;;;;5055770;28;20040;-77
2021/12/27 10:46:11;;;;;;;99.93;28.80;;;2.70;99.90;;;;;;5055871;28;20068;-77
2021/12/27 10:48:46;;;;;;;70.78;25.20;;;2.70;99.90;;;;;;5038823;28;20043;-77
2021/12/27 10:51:12;;;;;;;96.28;29.30;;;2.70;99.90;;;;;;5055495;28;20058;-76
2021/12/27 10:53:53;;;;;;;100.70;29.42;;;2.70;99.90;;;;;;5055576;28;20041;-76
2021/12/27 10:56:22;;;;;;;86.43;27.48;;;2.80;99.90;;;;;;5055370;28;20497;-75
2021/12/27 10:59:00;;;;;;;90.93;27.70;;;2.80;99.90;;;;;;5055312;28;20149;-76
2021/12/27 11:01:27;;;;;;;149.10;30.35;;;2.80;99.90;;;;;;5055268;28;20408;-75
2021/12/27 11:03:58;;;;;;;79.40;26.52;;;2.80;99.90;;;;;;5055136;28;20393;-75
2021/12/27 11:06:26;;;;;;;96.50;27.83;;;2.90;99.90;;;;;;5055247;28;20093;-76
2021/12/27 11:08:53;;;;;;;116.45;31.05;;;2.90;99.90;;;;;;5055150;28;20078;-77
2021/12/27 11:11:23;;;;;;;117.28;32.25;;;2.90;99.90;;;;;;5055229;28;20036;-76
2021/12/27 11:13:52;;;;;;;82.40;26.88;;;3.00;99.90;;;;;;5054747;28;20040;-76
2021/12/27 11:16:18;;;;;;;79.38;28.70;;;3.00;99.90;;;;;;5055095;28;20497;-76
2021/12/27 11:18:45;;;;;;;99.85;28.40;;;3.00;99.90;;;;;;5055334;28;20047;-76
2021/12/27 11:21:15;;;;;;;101.00;26.40;;;3.00;99.90;;;;;;5055061;28;20044;-77
2021/12/27 11:23:42;;;;;;;116.13;29.77;;;3.00;99.90;;;;;;5054766;28;20519;-77
2021/12/27 11:26:11;;;;;;;99.57;29.95;;;3.10;99.90;;;;;;5055081;28;20040;-77
2021/12/27 11:28:42;;;;;;;95.55;29.10;;;3.10;99.90;;;;;;5054974;28;20543;-78
2021/12/27 11:31:23;;;;;;;126.03;29.05;;;3.10;99.90;;;;;;5055048;28;20042;-77
2021/12/27 11:34:04;;;;;;;91.03;28.50;;;3.10;99.90;;;;;;5054948;28;20505;-77
2021/12/27 11:36:32;;;;;;;87.18;26.80;;;3.10;99.90;;;;;;5039064;28;20125;-77
2021/12/27 11:39:15;;;;;;;84.72;28.13;;;3.10;99.90;;;;;;5054882;28;20053;-76
2021/12/27 11:41:41;;;;;;;90.75;26.52;;;3.10;99.90;;;;;;5054987;28;20076;-76
2021/12/27 11:44:17;;;;;;;127.90;29.77;;;3.20;99.90;;;;;;5054684;28;20107;-76
2021/12/27 11:46:49;;;;;;;109.80;30.60;;;3.20;99.90;;;;;;5054894;28;20032;-77
2021/12/27 11:49:48;;;;;;;111.50;29.42;;;3.20;99.90;;;;;;5054836;28;20036;-77
2021/12/27 11:52:31;;;;;;;92.88;29.80;;;3.20;99.90;;;;;;5038056;28;20120;-76
2021/12/27 11:55:01;;;;;;;112.28;30.80;;;3.20;99.90;;;;;;5055117;28;20040;-76
2021/12/27 11:57:39;;;;;;;80.95;28.20;;;3.20;99.90;;;;;;5054767;28;20054;-77
2021/12/27 12:00:17;;;;;;;97.10;29.23;;;3.20;99.90;;;;;;5054657;28;20409;-77
2021/12/27 12:02:46;;;;;;;121.18;31.00;;;3.20;99.90;;;;;;5054547;28;20051;-77
2021/12/27 12:05:36;;;;;;;123.63;29.70;;;3.30;99.90;;;;;;5054738;28;20048;-77
2021/12/27 12:08:03;;;;;;;95.85;30.25;;;3.30;99.90;;;;;;5054948;28;20037;-77
2021/12/27 12:10:30;;;;;;;89.60;28.08;;;3.30;99.90;;;;;;5055311;28;20040;-77
2021/12/27 12:13:20;;;;;;;92.47;29.40;;;3.30;99.90;;;;;;5054871;28;20052;-77
2021/12/27 12:15:59;;;;;;;96.88;30.67;;;3.30;99.90;;;;;;5038296;28;20040;-76
2021/12/27 12:18:24;;;;;;;89.50;28.70;;;3.40;99.90;;;;;;5054606;28;20033;-77
2021/12/27 12:20:50;;;;;;;106.63;30.10;;;3.40;99.90;;;;;;5054718;28;20042;-77
2021/12/27 12:23:16;;;;;;;111.05;30.42;;;3.40;99.90;;;;;;5054440;28;20037;-76
2021/12/27 12:25:41;;;;;;;150.77;38.10;;;3.40;99.90;;;;;;5057831;28;20062;-76
2021/12/27 12:28:09;;;;;;;104.53;32.47;;;3.40;99.90;;;;;;5058064;28;20040;-74
2021/12/27 12:30:37;;;;;;;80.50;29.65;;;3.50;99.90;;;;;;5058732;28;20036;-76
2021/12/27 12:33:14;;;;;;;82.10;28.70;;;3.50;99.90;;;;;;5058339;28;20529;-76
2021/12/27 12:35:39;;;;;;;95.75;31.38;;;3.50;99.90;;;;;;5058079;28;20032;-76
2021/12/27 12:38:31;;;;;;;81.78;29.35;;;3.50;99.90;;;;;;5058318;28;20043;-76